sensor_id;sensor_type;location;lat;lon;timestamp;temperature;humidity
70762;DHT22;58360;0.000;0.000;2022-12-29T00:03:25;11.80;91.40
70762;DHT22;58360;0.000;0.000;2022-12-29T00:05:57;11.90;91.10
70762;DHT22;58360;0.000;0.000;2022-12-29T00:08:23;12.00;91.10
70762;DHT22;58360;0.000;0.000;2022-12-29T00:11:12;11.90;91.50
70762;DHT22;58360;0.000;0.000;2022-12-29T00:13:38;11.80;91.70
70762;DHT22;58360;0.000;0.000;2022-12-29T00:16:23;11.90;91.50
70762;DHT22;58360;0.000;0.000;2022-12-29T00:18:49;11.90;91.40
70762;DHT22;58360;0.000;0.000;2022-12-29T00:21:16;11.90;91.30
70762;DHT22;58360;0.000;0.000;2022-12-29T00:24:01;11.80;91.40
70762;DHT22;58360;0.000;0.000;2022-12-29T00:27:07;11.90;91.10
70762;DHT22;58360;0.000;0.000;2022-12-29T00:33:30;11.90;90.20
70762;DHT22;58360;0.000;0.000;2022-12-29T00:39:44;11.90;90.30
70762;DHT22;58360;0.000;0.000;2022-12-29T00:45:51;11.90;89.80
70762;DHT22;58360;0.000;0.000;2022-12-29T00:48:17;11.90;89.50
70762;DHT22;58360;0.000;0.000;2022-12-29T00:51:14;12.00;89.00
70762;DHT22;58360;0.000;0.000;2022-12-29T00:57:02;12.10;88.90
70762;DHT22;58360;0.000;0.000;2022-12-29T00:59:28;12.20;87.80
70762;DHT22;58360;0.000;0.000;2022-12-29T01:01:55;12.10;87.50
70762;DHT22;58360;0.000;0.000;2022-12-29T01:04:34;12.10;86.90
70762;DHT22;58360;0.000;0.000;2022-12-29T01:07:00;12.20;87.30
70762;DHT22;58360;0.000;0.000;2022-12-29T01:09:26;12.20;86.30
70762;DHT22;58360;0.000;0.000;2022-12-29T01:15:38;12.10;86.00
70762;DHT22;58360;0.000;0.000;2022-12-29T01:18:25;12.20;85.80
70762;DHT22;58360;0.000;0.000;2022-12-29T01:20:51;12.20;86.10
70762;DHT22;58360;0.000;0.000;2022-12-29T01:23:17;12.20;86.10
70762;DHT22;58360;0.000;0.000;2022-12-29T01:25:43;12.20;86.50
70762;DHT22;58360;0.000;0.000;2022-12-29T01:28:09;12.20;86.30
70762;DHT22;58360;0.000;0.000;2022-12-29T01:30:35;12.30;86.20
70762;DHT22;58360;0.000;0.000;2022-12-29T01:33:01;12.30;86.60
70762;DHT22;58360;0.000;0.000;2022-12-29T01:38:50;12.30;85.80
70762;DHT22;58360;0.000;0.000;2022-12-29T01:41:16;12.20;85.90
70762;DHT22;58360;0.000;0.000;2022-12-29T01:43:56;12.20;86.70
70762;DHT22;58360;0.000;0.000;2022-12-29T01:46:59;12.20;86.80
70762;DHT22;58360;0.000;0.000;2022-12-29T01:52:54;12.10;88.50
70762;DHT22;58360;0.000;0.000;2022-12-29T02:24:48;12.00;88.90
70762;DHT22;58360;0.000;0.000;2022-12-29T02:27:50;11.90;88.90
70762;DHT22;58360;0.000;0.000;2022-12-29T02:30:38;12.00;88.60
70762;DHT22;58360;0.000;0.000;2022-12-29T02:45:54;11.90;88.20
70762;DHT22;58360;0.000;0.000;2022-12-29T02:52:25;11.80;88.80
70762;DHT22;58360;0.000;0.000;2022-12-29T02:58:21;11.80;88.50
70762;DHT22;58360;0.000;0.000;2022-12-29T03:04:27;11.70;87.50
70762;DHT22;58360;0.000;0.000;2022-12-29T03:11:06;11.60;88.40
70762;DHT22;58360;0.000;0.000;2022-12-29T03:24:07;11.50;88.10
70762;DHT22;58360;0.000;0.000;2022-12-29T03:26:32;11.50;88.20
70762;DHT22;58360;0.000;0.000;2022-12-29T03:28:58;11.50;89.10
70762;DHT22;58360;0.000;0.000;2022-12-29T03:31:25;11.40;88.90
70762;DHT22;58360;0.000;0.000;2022-12-29T03:33:51;11.30;89.80
70762;DHT22;58360;0.000;0.000;2022-12-29T03:36:39;11.30;89.50
70762;DHT22;58360;0.000;0.000;2022-12-29T03:43:08;11.20;87.10
70762;DHT22;58360;0.000;0.000;2022-12-29T03:45:35;11.10;87.60
70762;DHT22;58360;0.000;0.000;2022-12-29T03:48:00;11.10;87.90
70762;DHT22;58360;0.000;0.000;2022-12-29T03:50:26;11.00;87.30
70762;DHT22;58360;0.000;0.000;2022-12-29T03:52:52;11.10;87.30
70762;DHT22;58360;0.000;0.000;2022-12-29T03:58:40;11.10;86.60
70762;DHT22;58360;0.000;0.000;2022-12-29T04:01:05;11.10;86.30
70762;DHT22;58360;0.000;0.000;2022-12-29T04:03:31;11.10;86.20
70762;DHT22;58360;0.000;0.000;2022-12-29T04:05:57;11.10;86.00
70762;DHT22;58360;0.000;0.000;2022-12-29T04:08:22;11.00;85.00
70762;DHT22;58360;0.000;0.000;2022-12-29T04:11:06;11.00;85.40
70762;DHT22;58360;0.000;0.000;2022-12-29T04:13:32;11.00;84.40
70762;DHT22;58360;0.000;0.000;2022-12-29T04:15:57;11.00;84.60
70762;DHT22;58360;0.000;0.000;2022-12-29T04:18:36;10.90;84.10
70762;DHT22;58360;0.000;0.000;2022-12-29T04:24:34;10.90;83.90
70762;DHT22;58360;0.000;0.000;2022-12-29T04:30:23;11.00;84.20
70762;DHT22;58360;0.000;0.000;2022-12-29T04:36:16;11.00;84.30
70762;DHT22;58360;0.000;0.000;2022-12-29T04:38:42;11.00;84.60
70762;DHT22;58360;0.000;0.000;2022-12-29T04:41:07;11.00;84.70
70762;DHT22;58360;0.000;0.000;2022-12-29T04:44:01;11.00;84.50
70762;DHT22;58360;0.000;0.000;2022-12-29T04:49:52;11.00;85.10
70762;DHT22;58360;0.000;0.000;2022-12-29T04:55:41;11.10;84.20
70762;DHT22;58360;0.000;0.000;2022-12-29T05:01:31;11.20;83.50
70762;DHT22;58360;0.000;0.000;2022-12-29T05:03:57;11.30;83.00
70762;DHT22;58360;0.000;0.000;2022-12-29T05:06:22;11.30;83.10
70762;DHT22;58360;0.000;0.000;2022-12-29T05:08:48;11.30;83.00
70762;DHT22;58360;0.000;0.000;2022-12-29T05:11:14;11.30;83.20
70762;DHT22;58360;0.000;0.000;2022-12-29T05:17:04;11.10;83.50
70762;DHT22;58360;0.000;0.000;2022-12-29T05:19:30;11.10;83.10
70762;DHT22;58360;0.000;0.000;2022-12-29T05:21:56;11.10;83.20
70762;DHT22;58360;0.000;0.000;2022-12-29T05:24:27;11.10;82.80
70762;DHT22;58360;0.000;0.000;2022-12-29T05:34:12;11.20;81.70
70762;DHT22;58360;0.000;0.000;2022-12-29T05:40:01;11.10;82.60
70762;DHT22;58360;0.000;0.000;2022-12-29T05:45:50;11.20;82.10
70762;DHT22;58360;0.000;0.000;2022-12-29T05:48:16;11.20;82.00
70762;DHT22;58360;0.000;0.000;2022-12-29T05:50:41;11.20;82.30
70762;DHT22;58360;0.000;0.000;2022-12-29T05:53:07;11.20;82.10
70762;DHT22;58360;0.000;0.000;2022-12-29T05:55:34;11.30;82.10
70762;DHT22;58360;0.000;0.000;2022-12-29T05:57:59;11.30;81.50
70762;DHT22;58360;0.000;0.000;2022-12-29T06:00:25;11.40;81.20
70762;DHT22;58360;0.000;0.000;2022-12-29T06:02:51;11.30;81.30
70762;DHT22;58360;0.000;0.000;2022-12-29T06:05:17;11.30;81.20
70762;DHT22;58360;0.000;0.000;2022-12-29T06:07:44;11.30;81.30
70762;DHT22;58360;0.000;0.000;2022-12-29T06:14:02;11.40;80.60
70762;DHT22;58360;0.000;0.000;2022-12-29T06:19:52;11.50;79.90
70762;DHT22;58360;0.000;0.000;2022-12-29T06:25:47;11.30;79.60
70762;DHT22;58360;0.000;0.000;2022-12-29T06:31:41;11.30;80.00
70762;DHT22;58360;0.000;0.000;2022-12-29T06:37:25;11.40;79.00
70762;DHT22;58360;0.000;0.000;2022-12-29T06:43:24;11.30;78.90
70762;DHT22;58360;0.000;0.000;2022-12-29T06:49:14;11.30;78.20
70762;DHT22;58360;0.000;0.000;2022-12-29T06:55:04;11.40;77.50
70762;DHT22;58360;0.000;0.000;2022-12-29T07:00:52;11.50;77.00
70762;DHT22;58360;0.000;0.000;2022-12-29T07:06:40;11.40;76.90
70762;DHT22;58360;0.000;0.000;2022-12-29T07:12:34;11.60;75.70
70762;DHT22;58360;0.000;0.000;2022-12-29T07:18:31;11.50;76.30
70762;DHT22;58360;0.000;0.000;2022-12-29T07:24:28;11.50;75.90
70762;DHT22;58360;0.000;0.000;2022-12-29T07:30:28;11.30;75.60
70762;DHT22;58360;0.000;0.000;2022-12-29T07:36:30;11.30;75.20
70762;DHT22;58360;0.000;0.000;2022-12-29T07:38:56;11.30;75.40
70762;DHT22;58360;0.000;0.000;2022-12-29T07:41:22;11.40;75.30
70762;DHT22;58360;0.000;0.000;2022-12-29T07:43:56;11.40;75.20
70762;DHT22;58360;0.000;0.000;2022-12-29T07:50:00;11.40;74.90
70762;DHT22;58360;0.000;0.000;2022-12-29T07:56:02;11.50;74.70
70762;DHT22;58360;0.000;0.000;2022-12-29T07:58:28;11.50;74.30
70762;DHT22;58360;0.000;0.000;2022-12-29T08:00:55;11.50;73.60
70762;DHT22;58360;0.000;0.000;2022-12-29T08:03:21;11.50;74.60
70762;DHT22;58360;0.000;0.000;2022-12-29T08:06:02;11.60;74.00
70762;DHT22;58360;0.000;0.000;2022-12-29T08:08:46;11.70;74.20
70762;DHT22;58360;0.000;0.000;2022-12-29T08:11:12;11.70;74.50
70762;DHT22;58360;0.000;0.000;2022-12-29T08:13:38;11.60;75.10
70762;DHT22;58360;0.000;0.000;2022-12-29T08:16:04;11.70;74.00
70762;DHT22;58360;0.000;0.000;2022-12-29T08:18:29;11.70;74.20
70762;DHT22;58360;0.000;0.000;2022-12-29T08:20:55;11.70;74.10
70762;DHT22;58360;0.000;0.000;2022-12-29T08:23:55;11.70;74.40
70762;DHT22;58360;0.000;0.000;2022-12-29T08:30:06;11.80;75.00
70762;DHT22;58360;0.000;0.000;2022-12-29T08:32:32;11.80;75.30
70762;DHT22;58360;0.000;0.000;2022-12-29T08:34:57;11.80;75.00
70762;DHT22;58360;0.000;0.000;2022-12-29T08:37:35;11.80;76.00
70762;DHT22;58360;0.000;0.000;2022-12-29T08:43:22;11.80;75.80
70762;DHT22;58360;0.000;0.000;2022-12-29T08:45:48;11.70;76.10
70762;DHT22;58360;0.000;0.000;2022-12-29T08:55:15;11.70;75.30
70762;DHT22;58360;0.000;0.000;2022-12-29T09:01:14;11.70;74.40
70762;DHT22;58360;0.000;0.000;2022-12-29T09:07:04;11.60;76.70
70762;DHT22;58360;0.000;0.000;2022-12-29T09:09:31;11.40;79.10
70762;DHT22;58360;0.000;0.000;2022-12-29T09:11:57;11.30;78.80
70762;DHT22;58360;0.000;0.000;2022-12-29T09:14:22;11.20;79.30
70762;DHT22;58360;0.000;0.000;2022-12-29T09:20:17;11.10;80.40
70762;DHT22;58360;0.000;0.000;2022-12-29T09:26:32;11.00;80.30
70762;DHT22;58360;0.000;0.000;2022-12-29T09:32:20;10.90;81.30
70762;DHT22;58360;0.000;0.000;2022-12-29T09:34:47;10.90;80.90
70762;DHT22;58360;0.000;0.000;2022-12-29T09:37:12;10.90;81.10
70762;DHT22;58360;0.000;0.000;2022-12-29T09:39:38;11.00;81.30
70762;DHT22;58360;0.000;0.000;2022-12-29T09:42:13;11.00;81.00
70762;DHT22;58360;0.000;0.000;2022-12-29T10:24:21;11.10;81.40
70762;DHT22;58360;0.000;0.000;2022-12-29T10:38:03;11.10;82.10
70762;DHT22;58360;0.000;0.000;2022-12-29T10:44:00;11.10;82.00
70762;DHT22;58360;0.000;0.000;2022-12-29T10:53:40;11.20;80.80
70762;DHT22;58360;0.000;0.000;2022-12-29T12:00:35;11.90;74.30
70762;DHT22;58360;0.000;0.000;2022-12-29T12:03:15;11.80;75.00
70762;DHT22;58360;0.000;0.000;2022-12-29T12:05:57;11.80;74.80
70762;DHT22;58360;0.000;0.000;2022-12-29T12:08:47;12.00;74.60
70762;DHT22;58360;0.000;0.000;2022-12-29T12:11:29;12.20;74.00
70762;DHT22;58360;0.000;0.000;2022-12-29T12:17:44;12.40;72.50
70762;DHT22;58360;0.000;0.000;2022-12-29T12:21:16;12.40;72.50
70762;DHT22;58360;0.000;0.000;2022-12-29T12:28:00;12.10;74.80
70762;DHT22;58360;0.000;0.000;2022-12-29T12:30:44;11.90;77.40
70762;DHT22;58360;0.000;0.000;2022-12-29T13:21:00;11.40;83.50
70762;DHT22;58360;0.000;0.000;2022-12-29T13:26:51;11.30;82.10
70762;DHT22;58360;0.000;0.000;2022-12-29T13:39:01;11.30;80.60
70762;DHT22;58360;0.000;0.000;2022-12-29T13:41:42;11.40;79.50
70762;DHT22;58360;0.000;0.000;2022-12-29T13:51:26;11.20;80.00
70762;DHT22;58360;0.000;0.000;2022-12-29T13:57:47;11.00;82.00
70762;DHT22;58360;0.000;0.000;2022-12-29T14:00:19;11.00;84.00
70762;DHT22;58360;0.000;0.000;2022-12-29T14:05:32;11.00;83.70
70762;DHT22;58360;0.000;0.000;2022-12-29T14:46:54;10.00;85.70
70762;DHT22;58360;0.000;0.000;2022-12-29T14:49:23;10.00;86.80
70762;DHT22;58360;0.000;0.000;2022-12-29T14:52:04;9.80;88.00
70762;DHT22;58360;0.000;0.000;2022-12-29T14:57:01;9.80;85.60
70762;DHT22;58360;0.000;0.000;2022-12-29T14:59:29;9.80;87.20
70762;DHT22;58360;0.000;0.000;2022-12-29T15:01:56;9.90;85.90
70762;DHT22;58360;0.000;0.000;2022-12-29T15:04:26;9.80;85.40
70762;DHT22;58360;0.000;0.000;2022-12-29T15:06:53;9.70;86.90
70762;DHT22;58360;0.000;0.000;2022-12-29T15:09:33;9.60;87.10
70762;DHT22;58360;0.000;0.000;2022-12-29T15:12:11;9.70;86.70
70762;DHT22;58360;0.000;0.000;2022-12-29T15:18:24;9.60;86.00
70762;DHT22;58360;0.000;0.000;2022-12-29T15:24:12;9.70;83.90
70762;DHT22;58360;0.000;0.000;2022-12-29T15:26:42;9.70;84.40
70762;DHT22;58360;0.000;0.000;2022-12-29T15:29:45;9.70;85.10
70762;DHT22;58360;0.000;0.000;2022-12-29T15:34:52;9.80;82.20
70762;DHT22;58360;0.000;0.000;2022-12-29T15:37:24;9.70;83.00
70762;DHT22;58360;0.000;0.000;2022-12-29T15:39:50;9.70;83.30
70762;DHT22;58360;0.000;0.000;2022-12-29T15:45:11;9.70;80.90
70762;DHT22;58360;0.000;0.000;2022-12-29T15:47:38;9.60;81.40
70762;DHT22;58360;0.000;0.000;2022-12-29T15:53:32;9.60;81.90
70762;DHT22;58360;0.000;0.000;2022-12-29T15:56:09;9.60;80.90
70762;DHT22;58360;0.000;0.000;2022-12-29T15:58:45;9.70;80.10
70762;DHT22;58360;0.000;0.000;2022-12-29T16:03:45;9.70;79.70
70762;DHT22;58360;0.000;0.000;2022-12-29T16:07:20;9.80;80.00
70762;DHT22;58360;0.000;0.000;2022-12-29T16:09:27;9.70;79.90
70762;DHT22;58360;0.000;0.000;2022-12-29T16:11:55;9.80;79.80
70762;DHT22;58360;0.000;0.000;2022-12-29T16:14:41;9.80;80.10
70762;DHT22;58360;0.000;0.000;2022-12-29T16:17:13;9.70;80.20
70762;DHT22;58360;0.000;0.000;2022-12-29T16:19:42;9.60;80.00
70762;DHT22;58360;0.000;0.000;2022-12-29T16:22:22;9.60;80.00
70762;DHT22;58360;0.000;0.000;2022-12-29T16:25:30;9.60;79.50
70762;DHT22;58360;0.000;0.000;2022-12-29T16:28:16;9.50;80.70
70762;DHT22;58360;0.000;0.000;2022-12-29T16:30:42;9.40;81.00
70762;DHT22;58360;0.000;0.000;2022-12-29T16:33:46;9.40;80.80
70762;DHT22;58360;0.000;0.000;2022-12-29T16:39:35;9.40;79.60
70762;DHT22;58360;0.000;0.000;2022-12-29T16:51:36;9.20;81.40
70762;DHT22;58360;0.000;0.000;2022-12-29T16:54:03;9.20;81.10
70762;DHT22;58360;0.000;0.000;2022-12-29T16:56:32;9.30;80.70
70762;DHT22;58360;0.000;0.000;2022-12-29T16:59:30;9.30;81.00
70762;DHT22;58360;0.000;0.000;2022-12-29T17:01:56;9.20;81.60
70762;DHT22;58360;0.000;0.000;2022-12-29T17:04:23;9.20;81.20
70762;DHT22;58360;0.000;0.000;2022-12-29T17:06:48;9.20;81.10
70762;DHT22;58360;0.000;0.000;2022-12-29T17:09:20;9.20;81.10
70762;DHT22;58360;0.000;0.000;2022-12-29T17:11:49;9.20;80.80
70762;DHT22;58360;0.000;0.000;2022-12-29T17:14:44;9.10;80.90
70762;DHT22;58360;0.000;0.000;2022-12-29T17:17:29;9.00;82.20
70762;DHT22;58360;0.000;0.000;2022-12-29T17:19:59;9.00;81.80
70762;DHT22;58360;0.000;0.000;2022-12-29T17:22:28;9.10;81.70
70762;DHT22;58360;0.000;0.000;2022-12-29T17:24:56;9.00;81.80
70762;DHT22;58360;0.000;0.000;2022-12-29T17:27:37;9.10;81.70
70762;DHT22;58360;0.000;0.000;2022-12-29T17:30:15;9.20;81.30
70762;DHT22;58360;0.000;0.000;2022-12-29T17:33:17;9.10;81.30
70762;DHT22;58360;0.000;0.000;2022-12-29T17:35:43;9.10;81.60
70762;DHT22;58360;0.000;0.000;2022-12-29T17:38:27;9.10;81.60
70762;DHT22;58360;0.000;0.000;2022-12-29T17:40:52;9.00;82.20
70762;DHT22;58360;0.000;0.000;2022-12-29T17:43:18;9.10;82.10
70762;DHT22;58360;0.000;0.000;2022-12-29T17:45:48;9.10;81.90
70762;DHT22;58360;0.000;0.000;2022-12-29T17:48:17;9.10;81.40
70762;DHT22;58360;0.000;0.000;2022-12-29T17:50:43;9.10;81.90
70762;DHT22;58360;0.000;0.000;2022-12-29T17:53:13;9.00;81.90
70762;DHT22;58360;0.000;0.000;2022-12-29T17:55:40;9.10;82.30
70762;DHT22;58360;0.000;0.000;2022-12-29T17:58:21;9.10;81.80
70762;DHT22;58360;0.000;0.000;2022-12-29T18:00:49;9.20;81.10
70762;DHT22;58360;0.000;0.000;2022-12-29T18:03:17;9.20;80.80
70762;DHT22;58360;0.000;0.000;2022-12-29T18:05:44;9.10;81.30
70762;DHT22;58360;0.000;0.000;2022-12-29T18:08:10;9.10;80.80
70762;DHT22;58360;0.000;0.000;2022-12-29T18:10:37;9.10;80.90
70762;DHT22;58360;0.000;0.000;2022-12-29T18:13:03;9.10;80.70
70762;DHT22;58360;0.000;0.000;2022-12-29T18:15:31;9.00;81.00
70762;DHT22;58360;0.000;0.000;2022-12-29T18:18:00;9.10;80.90
70762;DHT22;58360;0.000;0.000;2022-12-29T18:20:29;9.00;81.30
70762;DHT22;58360;0.000;0.000;2022-12-29T18:22:56;9.10;80.30
70762;DHT22;58360;0.000;0.000;2022-12-29T18:27:51;9.10;80.90
70762;DHT22;58360;0.000;0.000;2022-12-29T18:33:42;9.00;80.80
70762;DHT22;58360;0.000;0.000;2022-12-29T18:36:10;9.00;80.50
70762;DHT22;58360;0.000;0.000;2022-12-29T18:38:36;8.90;80.60
70762;DHT22;58360;0.000;0.000;2022-12-29T18:41:02;9.00;80.90
70762;DHT22;58360;0.000;0.000;2022-12-29T18:43:29;9.00;80.10
70762;DHT22;58360;0.000;0.000;2022-12-29T18:45:54;9.10;80.10
70762;DHT22;58360;0.000;0.000;2022-12-29T18:48:20;9.00;80.10
70762;DHT22;58360;0.000;0.000;2022-12-29T18:57:11;9.20;78.90
70762;DHT22;58360;0.000;0.000;2022-12-29T18:59:56;9.10;79.10
70762;DHT22;58360;0.000;0.000;2022-12-29T19:02:22;9.10;79.80
70762;DHT22;58360;0.000;0.000;2022-12-29T19:04:50;9.10;79.70
70762;DHT22;58360;0.000;0.000;2022-12-29T19:07:15;9.20;79.20
70762;DHT22;58360;0.000;0.000;2022-12-29T19:09:41;9.20;78.80
70762;DHT22;58360;0.000;0.000;2022-12-29T19:12:13;9.20;78.70
70762;DHT22;58360;0.000;0.000;2022-12-29T19:14:40;9.10;79.00
70762;DHT22;58360;0.000;0.000;2022-12-29T19:17:11;9.10;79.10
70762;DHT22;58360;0.000;0.000;2022-12-29T19:19:40;9.00;79.20
70762;DHT22;58360;0.000;0.000;2022-12-29T19:22:07;9.00;79.40
70762;DHT22;58360;0.000;0.000;2022-12-29T19:24:33;9.00;79.90
70762;DHT22;58360;0.000;0.000;2022-12-29T19:26:59;8.90;80.00
70762;DHT22;58360;0.000;0.000;2022-12-29T19:29:25;8.90;79.50
70762;DHT22;58360;0.000;0.000;2022-12-29T19:31:50;9.00;79.60
70762;DHT22;58360;0.000;0.000;2022-12-29T19:34:16;8.90;79.20
70762;DHT22;58360;0.000;0.000;2022-12-29T19:36:43;8.90;79.30
70762;DHT22;58360;0.000;0.000;2022-12-29T19:39:10;8.90;79.80
70762;DHT22;58360;0.000;0.000;2022-12-29T19:41:36;8.90;79.20
70762;DHT22;58360;0.000;0.000;2022-12-29T19:44:02;8.80;79.50
70762;DHT22;58360;0.000;0.000;2022-12-29T19:46:27;8.90;79.60
70762;DHT22;58360;0.000;0.000;2022-12-29T19:48:53;8.80;79.60
70762;DHT22;58360;0.000;0.000;2022-12-29T19:51:23;8.80;79.50
70762;DHT22;58360;0.000;0.000;2022-12-29T19:53:49;8.90;79.60
70762;DHT22;58360;0.000;0.000;2022-12-29T19:56:15;8.90;79.70
70762;DHT22;58360;0.000;0.000;2022-12-29T19:58:42;8.80;79.70
70762;DHT22;58360;0.000;0.000;2022-12-29T20:01:10;8.80;80.00
70762;DHT22;58360;0.000;0.000;2022-12-29T20:03:37;8.80;80.00
70762;DHT22;58360;0.000;0.000;2022-12-29T20:06:04;8.80;79.80
70762;DHT22;58360;0.000;0.000;2022-12-29T20:08:30;8.70;79.70
70762;DHT22;58360;0.000;0.000;2022-12-29T20:13:52;8.70;80.10
70762;DHT22;58360;0.000;0.000;2022-12-29T20:16:18;8.80;79.80
70762;DHT22;58360;0.000;0.000;2022-12-29T20:18:45;8.80;79.60
70762;DHT22;58360;0.000;0.000;2022-12-29T20:21:14;8.80;79.70
70762;DHT22;58360;0.000;0.000;2022-12-29T20:23:41;8.70;80.20
70762;DHT22;58360;0.000;0.000;2022-12-29T20:26:11;8.70;80.20
70762;DHT22;58360;0.000;0.000;2022-12-29T20:28:37;8.70;79.80
70762;DHT22;58360;0.000;0.000;2022-12-29T20:31:06;8.80;79.30
70762;DHT22;58360;0.000;0.000;2022-12-29T20:33:34;8.80;79.40
70762;DHT22;58360;0.000;0.000;2022-12-29T20:36:30;8.80;79.60
70762;DHT22;58360;0.000;0.000;2022-12-29T20:38:58;8.80;79.70
70762;DHT22;58360;0.000;0.000;2022-12-29T20:41:25;8.70;79.60
70762;DHT22;58360;0.000;0.000;2022-12-29T20:43:51;8.70;80.00
70762;DHT22;58360;0.000;0.000;2022-12-29T20:46:20;8.80;79.50
70762;DHT22;58360;0.000;0.000;2022-12-29T20:48:46;8.80;79.10
70762;DHT22;58360;0.000;0.000;2022-12-29T20:51:12;8.80;79.60
70762;DHT22;58360;0.000;0.000;2022-12-29T20:53:38;8.70;79.70
70762;DHT22;58360;0.000;0.000;2022-12-29T20:56:07;8.70;79.50
70762;DHT22;58360;0.000;0.000;2022-12-29T20:58:33;8.70;79.30
70762;DHT22;58360;0.000;0.000;2022-12-29T21:01:05;8.70;79.60
70762;DHT22;58360;0.000;0.000;2022-12-29T21:03:31;8.70;79.20
70762;DHT22;58360;0.000;0.000;2022-12-29T21:05:57;8.70;79.30
70762;DHT22;58360;0.000;0.000;2022-12-29T21:08:25;8.60;79.20
70762;DHT22;58360;0.000;0.000;2022-12-29T21:10:51;8.70;79.10
70762;DHT22;58360;0.000;0.000;2022-12-29T21:13:18;8.60;79.20
70762;DHT22;58360;0.000;0.000;2022-12-29T21:15:44;8.60;79.30
70762;DHT22;58360;0.000;0.000;2022-12-29T21:18:10;8.60;78.90
70762;DHT22;58360;0.000;0.000;2022-12-29T21:20:35;8.60;79.00
70762;DHT22;58360;0.000;0.000;2022-12-29T21:23:01;8.60;79.10
70762;DHT22;58360;0.000;0.000;2022-12-29T21:25:28;8.60;78.90
70762;DHT22;58360;0.000;0.000;2022-12-29T21:28:04;8.60;79.30
70762;DHT22;58360;0.000;0.000;2022-12-29T21:30:31;8.60;78.80
70762;DHT22;58360;0.000;0.000;2022-12-29T21:32:57;8.70;78.80
70762;DHT22;58360;0.000;0.000;2022-12-29T21:35:23;8.60;78.80
70762;DHT22;58360;0.000;0.000;2022-12-29T21:37:48;8.60;78.80
70762;DHT22;58360;0.000;0.000;2022-12-29T21:40:14;8.60;79.00
70762;DHT22;58360;0.000;0.000;2022-12-29T21:42:40;8.60;79.30
70762;DHT22;58360;0.000;0.000;2022-12-29T21:45:07;8.60;79.20
70762;DHT22;58360;0.000;0.000;2022-12-29T21:47:52;8.60;79.10
70762;DHT22;58360;0.000;0.000;2022-12-29T21:50:38;8.60;78.80
70762;DHT22;58360;0.000;0.000;2022-12-29T21:53:24;8.60;79.10
70762;DHT22;58360;0.000;0.000;2022-12-29T21:59:25;8.50;79.40
70762;DHT22;58360;0.000;0.000;2022-12-29T22:02:20;8.60;79.30
70762;DHT22;58360;0.000;0.000;2022-12-29T22:05:06;8.50;79.50
70762;DHT22;58360;0.000;0.000;2022-12-29T22:07:52;8.50;79.40
70762;DHT22;58360;0.000;0.000;2022-12-29T22:10:43;8.50;79.40
70762;DHT22;58360;0.000;0.000;2022-12-29T22:13:35;8.50;79.60
70762;DHT22;58360;0.000;0.000;2022-12-29T22:16:12;8.50;79.70
70762;DHT22;58360;0.000;0.000;2022-12-29T22:18:40;8.50;79.60
70762;DHT22;58360;0.000;0.000;2022-12-29T22:21:07;8.50;79.60
70762;DHT22;58360;0.000;0.000;2022-12-29T22:23:33;8.50;79.50
70762;DHT22;58360;0.000;0.000;2022-12-29T22:26:03;8.40;79.70
70762;DHT22;58360;0.000;0.000;2022-12-29T22:28:29;8.40;80.10
70762;DHT22;58360;0.000;0.000;2022-12-29T22:30:55;8.40;79.60
70762;DHT22;58360;0.000;0.000;2022-12-29T22:33:20;8.50;79.40
70762;DHT22;58360;0.000;0.000;2022-12-29T22:35:46;8.50;79.20
70762;DHT22;58360;0.000;0.000;2022-12-29T22:41:34;8.50;79.30
70762;DHT22;58360;0.000;0.000;2022-12-29T22:44:00;8.40;79.30
70762;DHT22;58360;0.000;0.000;2022-12-29T22:46:26;8.40;79.50
70762;DHT22;58360;0.000;0.000;2022-12-29T22:48:51;8.40;79.90
70762;DHT22;58360;0.000;0.000;2022-12-29T22:51:17;8.40;80.00
70762;DHT22;58360;0.000;0.000;2022-12-29T22:53:43;8.30;79.90
70762;DHT22;58360;0.000;0.000;2022-12-29T22:56:11;8.40;79.90
70762;DHT22;58360;0.000;0.000;2022-12-29T22:58:41;8.40;79.90
70762;DHT22;58360;0.000;0.000;2022-12-29T23:01:08;8.30;79.90
70762;DHT22;58360;0.000;0.000;2022-12-29T23:03:34;8.30;80.10
70762;DHT22;58360;0.000;0.000;2022-12-29T23:06:02;8.30;80.20
70762;DHT22;58360;0.000;0.000;2022-12-29T23:08:32;8.30;80.80
70762;DHT22;58360;0.000;0.000;2022-12-29T23:14:01;8.20;80.70
70762;DHT22;58360;0.000;0.000;2022-12-29T23:16:27;8.30;80.30
70762;DHT22;58360;0.000;0.000;2022-12-29T23:18:53;8.30;80.10
70762;DHT22;58360;0.000;0.000;2022-12-29T23:21:19;8.30;79.90
70762;DHT22;58360;0.000;0.000;2022-12-29T23:23:45;8.20;80.50
70762;DHT22;58360;0.000;0.000;2022-12-29T23:29:42;8.20;80.30
70762;DHT22;58360;0.000;0.000;2022-12-29T23:32:08;8.20;80.50
70762;DHT22;58360;0.000;0.000;2022-12-29T23:34:33;8.20;80.00
70762;DHT22;58360;0.000;0.000;2022-12-29T23:36:59;8.10;80.70
70762;DHT22;58360;0.000;0.000;2022-12-29T23:39:25;8.20;80.10
70762;DHT22;58360;0.000;0.000;2022-12-29T23:41:50;8.10;80.60
70762;DHT22;58360;0.000;0.000;2022-12-29T23:44:16;8.10;80.60
70762;DHT22;58360;0.000;0.000;2022-12-29T23:46:42;8.00;81.00
70762;DHT22;58360;0.000;0.000;2022-12-29T23:49:08;8.00;81.20
70762;DHT22;58360;0.000;0.000;2022-12-29T23:51:34;8.10;80.80
70762;DHT22;58360;0.000;0.000;2022-12-29T23:54:00;8.00;81.00
